sensor_id;sensor_type;location;lat;lon;timestamp;temperature;humidity
19941;DHT22;10132;50.864;5.176;2022-11-20T00:00:38;4.60;99.90
19941;DHT22;10132;50.864;5.176;2022-11-20T00:02:40;4.60;99.90
19941;DHT22;10132;50.864;5.176;2022-11-20T00:04:41;4.60;99.90
19941;DHT22;10132;50.864;5.176;2022-11-20T00:06:45;4.70;99.90
19941;DHT22;10132;50.864;5.176;2022-11-20T00:08:48;4.70;99.90
19941;DHT22;10132;50.864;5.176;2022-11-20T00:10:50;4.70;99.90
19941;DHT22;10132;50.864;5.176;2022-11-20T00:12:52;4.70;99.90
19941;DHT22;10132;50.864;5.176;2022-11-20T00:14:54;4.80;99.90
19941;DHT22;10132;50.864;5.176;2022-11-20T00:16:56;4.80;99.90
19941;DHT22;10132;50.864;5.176;2022-11-20T00:18:58;4.90;99.90
19941;DHT22;10132;50.864;5.176;2022-11-20T00:21:03;4.90;99.90
19941;DHT22;10132;50.864;5.176;2022-11-20T00:23:07;4.90;99.90
19941;DHT22;10132;50.864;5.176;2022-11-20T00:25:08;4.90;99.90
19941;DHT22;10132;50.864;5.176;2022-11-20T00:27:10;4.70;99.90
19941;DHT22;10132;50.864;5.176;2022-11-20T00:29:12;4.70;99.90
19941;DHT22;10132;50.864;5.176;2022-11-20T00:31:16;4.80;99.90
19941;DHT22;10132;50.864;5.176;2022-11-20T00:33:18;4.80;99.90
19941;DHT22;10132;50.864;5.176;2022-11-20T00:35:19;4.70;99.90
19941;DHT22;10132;50.864;5.176;2022-11-20T00:37:21;4.70;99.90
19941;DHT22;10132;50.864;5.176;2022-11-20T00:39:25;4.60;99.90
19941;DHT22;10132;50.864;5.176;2022-11-20T00:41:28;4.50;99.90
19941;DHT22;10132;50.864;5.176;2022-11-20T00:43:30;4.60;99.90
19941;DHT22;10132;50.864;5.176;2022-11-20T00:45:32;4.50;99.90
19941;DHT22;10132;50.864;5.176;2022-11-20T00:47:33;4.30;99.90
19941;DHT22;10132;50.864;5.176;2022-11-20T00:49:35;4.40;99.90
19941;DHT22;10132;50.864;5.176;2022-11-20T00:51:37;4.40;99.90
19941;DHT22;10132;50.864;5.176;2022-11-20T00:53:39;4.30;99.90
19941;DHT22;10132;50.864;5.176;2022-11-20T00:55:43;4.20;99.90
19941;DHT22;10132;50.864;5.176;2022-11-20T00:57:53;4.20;99.90
19941;DHT22;10132;50.864;5.176;2022-11-20T00:59:55;4.20;99.90
19941;DHT22;10132;50.864;5.176;2022-11-20T01:01:57;4.20;99.90
19941;DHT22;10132;50.864;5.176;2022-11-20T01:04:00;4.30;99.90
19941;DHT22;10132;50.864;5.176;2022-11-20T01:06:03;4.40;99.90
19941;DHT22;10132;50.864;5.176;2022-11-20T01:08:05;4.50;99.90
19941;DHT22;10132;50.864;5.176;2022-11-20T01:10:07;4.50;99.90
19941;DHT22;10132;50.864;5.176;2022-11-20T01:12:11;4.60;99.90
19941;DHT22;10132;50.864;5.176;2022-11-20T01:14:15;4.70;99.90
19941;DHT22;10132;50.864;5.176;2022-11-20T01:16:18;4.60;99.90
19941;DHT22;10132;50.864;5.176;2022-11-20T01:18:21;4.60;99.90
19941;DHT22;10132;50.864;5.176;2022-11-20T01:20:23;4.50;99.90
19941;DHT22;10132;50.864;5.176;2022-11-20T01:22:24;4.40;99.90
19941;DHT22;10132;50.864;5.176;2022-11-20T01:24:26;4.40;99.90
19941;DHT22;10132;50.864;5.176;2022-11-20T01:26:30;4.30;99.90
19941;DHT22;10132;50.864;5.176;2022-11-20T01:28:35;4.40;99.90
19941;DHT22;10132;50.864;5.176;2022-11-20T01:30:37;4.40;99.90
19941;DHT22;10132;50.864;5.176;2022-11-20T01:32:39;4.40;99.90
19941;DHT22;10132;50.864;5.176;2022-11-20T01:34:40;4.40;99.90
19941;DHT22;10132;50.864;5.176;2022-11-20T01:36:43;4.30;99.90
19941;DHT22;10132;50.864;5.176;2022-11-20T01:38:45;4.30;99.90
19941;DHT22;10132;50.864;5.176;2022-11-20T01:40:54;4.30;99.90
19941;DHT22;10132;50.864;5.176;2022-11-20T01:43:06;4.40;99.90
19941;DHT22;10132;50.864;5.176;2022-11-20T01:45:56;4.50;99.90
19941;DHT22;10132;50.864;5.176;2022-11-20T01:47:59;4.60;99.90
19941;DHT22;10132;50.864;5.176;2022-11-20T01:50:05;4.60;99.90
19941;DHT22;10132;50.864;5.176;2022-11-20T01:52:13;4.60;99.90
19941;DHT22;10132;50.864;5.176;2022-11-20T01:54:21;4.60;99.90
19941;DHT22;10132;50.864;5.176;2022-11-20T01:56:25;4.60;99.90
19941;DHT22;10132;50.864;5.176;2022-11-20T01:58:31;4.60;99.90
19941;DHT22;10132;50.864;5.176;2022-11-20T02:00:35;4.70;99.90
19941;DHT22;10132;50.864;5.176;2022-11-20T02:02:39;4.70;99.90
19941;DHT22;10132;50.864;5.176;2022-11-20T02:04:42;4.70;99.90
19941;DHT22;10132;50.864;5.176;2022-11-20T02:06:48;4.70;99.90
19941;DHT22;10132;50.864;5.176;2022-11-20T02:08:51;4.70;99.90
19941;DHT22;10132;50.864;5.176;2022-11-20T02:10:54;4.70;99.90
19941;DHT22;10132;50.864;5.176;2022-11-20T02:12:56;4.60;99.90
19941;DHT22;10132;50.864;5.176;2022-11-20T02:15:16;4.50;99.90
19941;DHT22;10132;50.864;5.176;2022-11-20T02:17:17;4.50;99.90
19941;DHT22;10132;50.864;5.176;2022-11-20T02:19:23;4.60;99.90
19941;DHT22;10132;50.864;5.176;2022-11-20T02:21:34;4.60;99.90
19941;DHT22;10132;50.864;5.176;2022-11-20T02:23:39;4.60;99.90
19941;DHT22;10132;50.864;5.176;2022-11-20T02:25:46;4.70;99.90
19941;DHT22;10132;50.864;5.176;2022-11-20T02:27:49;4.70;99.90
19941;DHT22;10132;50.864;5.176;2022-11-20T02:29:52;4.70;99.90
19941;DHT22;10132;50.864;5.176;2022-11-20T02:31:56;4.70;99.90
19941;DHT22;10132;50.864;5.176;2022-11-20T02:33:59;4.60;99.90
19941;DHT22;10132;50.864;5.176;2022-11-20T02:36:01;4.70;99.90
19941;DHT22;10132;50.864;5.176;2022-11-20T02:38:03;4.70;99.90
19941;DHT22;10132;50.864;5.176;2022-11-20T02:40:06;4.70;99.90
19941;DHT22;10132;50.864;5.176;2022-11-20T02:42:10;4.60;99.90
19941;DHT22;10132;50.864;5.176;2022-11-20T02:44:12;4.60;99.90
19941;DHT22;10132;50.864;5.176;2022-11-20T02:46:14;4.50;99.90
19941;DHT22;10132;50.864;5.176;2022-11-20T02:48:16;4.50;99.90
19941;DHT22;10132;50.864;5.176;2022-11-20T02:50:18;4.50;99.90
19941;DHT22;10132;50.864;5.176;2022-11-20T02:52:20;4.50;99.90
19941;DHT22;10132;50.864;5.176;2022-11-20T02:54:22;4.40;99.90
19941;DHT22;10132;50.864;5.176;2022-11-20T02:56:25;4.40;99.90
19941;DHT22;10132;50.864;5.176;2022-11-20T02:58:28;4.40;99.90
19941;DHT22;10132;50.864;5.176;2022-11-20T03:00:30;4.30;99.90
19941;DHT22;10132;50.864;5.176;2022-11-20T03:02:32;4.30;99.90
19941;DHT22;10132;50.864;5.176;2022-11-20T03:04:34;4.30;99.90
19941;DHT22;10132;50.864;5.176;2022-11-20T03:06:36;4.40;99.90
19941;DHT22;10132;50.864;5.176;2022-11-20T03:08:38;4.50;99.90
19941;DHT22;10132;50.864;5.176;2022-11-20T03:10:40;4.40;99.90
19941;DHT22;10132;50.864;5.176;2022-11-20T03:12:42;4.40;99.90
19941;DHT22;10132;50.864;5.176;2022-11-20T03:14:45;4.40;99.90
19941;DHT22;10132;50.864;5.176;2022-11-20T03:16:47;4.50;99.90
19941;DHT22;10132;50.864;5.176;2022-11-20T03:18:50;4.60;99.90
19941;DHT22;10132;50.864;5.176;2022-11-20T03:20:57;4.50;99.90
19941;DHT22;10132;50.864;5.176;2022-11-20T03:23:00;4.50;99.90
19941;DHT22;10132;50.864;5.176;2022-11-20T03:25:02;4.30;99.90
19941;DHT22;10132;50.864;5.176;2022-11-20T03:27:04;4.40;99.90
19941;DHT22;10132;50.864;5.176;2022-11-20T03:29:06;4.50;99.90
19941;DHT22;10132;50.864;5.176;2022-11-20T03:31:12;4.30;99.90
19941;DHT22;10132;50.864;5.176;2022-11-20T03:33:14;4.20;99.90
19941;DHT22;10132;50.864;5.176;2022-11-20T03:35:16;4.20;99.90
19941;DHT22;10132;50.864;5.176;2022-11-20T03:37:18;4.20;99.90
19941;DHT22;10132;50.864;5.176;2022-11-20T03:39:20;4.20;99.90
19941;DHT22;10132;50.864;5.176;2022-11-20T03:41:23;4.20;99.90
19941;DHT22;10132;50.864;5.176;2022-11-20T03:43:25;4.30;99.90
19941;DHT22;10132;50.864;5.176;2022-11-20T03:45:27;4.30;99.90
19941;DHT22;10132;50.864;5.176;2022-11-20T03:47:30;4.20;99.90
19941;DHT22;10132;50.864;5.176;2022-11-20T03:49:32;4.00;99.90
19941;DHT22;10132;50.864;5.176;2022-11-20T03:51:35;4.00;99.90
19941;DHT22;10132;50.864;5.176;2022-11-20T03:53:38;4.20;99.90
19941;DHT22;10132;50.864;5.176;2022-11-20T03:55:40;4.30;99.90
19941;DHT22;10132;50.864;5.176;2022-11-20T03:57:41;4.40;99.90
19941;DHT22;10132;50.864;5.176;2022-11-20T03:59:43;4.30;99.90
19941;DHT22;10132;50.864;5.176;2022-11-20T04:01:45;4.30;99.90
19941;DHT22;10132;50.864;5.176;2022-11-20T04:03:51;4.40;99.90
19941;DHT22;10132;50.864;5.176;2022-11-20T04:05:53;4.40;99.90
19941;DHT22;10132;50.864;5.176;2022-11-20T04:07:55;4.30;99.90
19941;DHT22;10132;50.864;5.176;2022-11-20T04:09:57;4.20;99.90
19941;DHT22;10132;50.864;5.176;2022-11-20T04:11:58;4.20;99.90
19941;DHT22;10132;50.864;5.176;2022-11-20T04:14:02;4.30;99.90
19941;DHT22;10132;50.864;5.176;2022-11-20T04:16:05;4.40;99.90
19941;DHT22;10132;50.864;5.176;2022-11-20T04:18:07;4.40;99.90
19941;DHT22;10132;50.864;5.176;2022-11-20T04:20:10;4.40;99.90
19941;DHT22;10132;50.864;5.176;2022-11-20T04:22:13;4.40;99.90
19941;DHT22;10132;50.864;5.176;2022-11-20T04:24:15;4.40;99.90
19941;DHT22;10132;50.864;5.176;2022-11-20T04:26:17;4.20;99.90
19941;DHT22;10132;50.864;5.176;2022-11-20T04:28:19;4.10;99.90
19941;DHT22;10132;50.864;5.176;2022-11-20T04:30:21;4.30;99.90
19941;DHT22;10132;50.864;5.176;2022-11-20T04:32:23;4.40;99.90
19941;DHT22;10132;50.864;5.176;2022-11-20T04:34:25;4.50;99.90
19941;DHT22;10132;50.864;5.176;2022-11-20T04:36:29;4.50;99.90
19941;DHT22;10132;50.864;5.176;2022-11-20T04:38:31;4.60;99.90
19941;DHT22;10132;50.864;5.176;2022-11-20T04:40:33;4.50;99.90
19941;DHT22;10132;50.864;5.176;2022-11-20T04:42:35;4.60;99.90
19941;DHT22;10132;50.864;5.176;2022-11-20T04:44:37;4.60;99.90
19941;DHT22;10132;50.864;5.176;2022-11-20T04:46:40;4.60;99.90
19941;DHT22;10132;50.864;5.176;2022-11-20T04:48:42;4.60;99.90
19941;DHT22;10132;50.864;5.176;2022-11-20T04:50:44;4.60;99.90
19941;DHT22;10132;50.864;5.176;2022-11-20T04:52:47;4.60;99.90
19941;DHT22;10132;50.864;5.176;2022-11-20T04:54:49;4.60;99.90
19941;DHT22;10132;50.864;5.176;2022-11-20T04:56:53;4.60;99.90
19941;DHT22;10132;50.864;5.176;2022-11-20T04:58:55;4.50;99.90
19941;DHT22;10132;50.864;5.176;2022-11-20T05:01:01;4.50;99.90
19941;DHT22;10132;50.864;5.176;2022-11-20T05:03:03;4.60;99.90
19941;DHT22;10132;50.864;5.176;2022-11-20T05:05:05;4.70;99.90
19941;DHT22;10132;50.864;5.176;2022-11-20T05:07:07;4.60;99.90
19941;DHT22;10132;50.864;5.176;2022-11-20T05:09:11;4.60;99.90
19941;DHT22;10132;50.864;5.176;2022-11-20T05:11:14;4.70;99.90
19941;DHT22;10132;50.864;5.176;2022-11-20T05:13:16;4.60;99.90
19941;DHT22;10132;50.864;5.176;2022-11-20T05:15:19;4.60;99.90
19941;DHT22;10132;50.864;5.176;2022-11-20T05:17:21;4.50;99.90
19941;DHT22;10132;50.864;5.176;2022-11-20T05:19:23;4.50;99.90
19941;DHT22;10132;50.864;5.176;2022-11-20T05:21:24;4.50;99.90
19941;DHT22;10132;50.864;5.176;2022-11-20T05:23:27;4.50;99.90
19941;DHT22;10132;50.864;5.176;2022-11-20T05:25:30;4.50;99.90
19941;DHT22;10132;50.864;5.176;2022-11-20T05:27:32;4.50;99.90
19941;DHT22;10132;50.864;5.176;2022-11-20T05:29:34;4.50;99.90
19941;DHT22;10132;50.864;5.176;2022-11-20T05:31:36;4.50;99.90
19941;DHT22;10132;50.864;5.176;2022-11-20T05:33:40;4.40;99.90
19941;DHT22;10132;50.864;5.176;2022-11-20T05:35:43;4.40;99.90
19941;DHT22;10132;50.864;5.176;2022-11-20T05:37:44;4.60;99.90
19941;DHT22;10132;50.864;5.176;2022-11-20T05:39:46;4.60;99.90
19941;DHT22;10132;50.864;5.176;2022-11-20T05:41:50;4.50;99.90
19941;DHT22;10132;50.864;5.176;2022-11-20T05:44:12;4.60;99.90
19941;DHT22;10132;50.864;5.176;2022-11-20T05:46:16;4.60;99.90
19941;DHT22;10132;50.864;5.176;2022-11-20T05:48:18;4.80;99.90
19941;DHT22;10132;50.864;5.176;2022-11-20T05:50:19;4.80;99.90
19941;DHT22;10132;50.864;5.176;2022-11-20T05:52:21;4.80;99.90
19941;DHT22;10132;50.864;5.176;2022-11-20T05:54:23;4.80;99.90
19941;DHT22;10132;50.864;5.176;2022-11-20T05:56:25;4.70;99.90
19941;DHT22;10132;50.864;5.176;2022-11-20T05:58:29;4.80;99.90
19941;DHT22;10132;50.864;5.176;2022-11-20T06:00:31;4.80;99.90
19941;DHT22;10132;50.864;5.176;2022-11-20T06:02:34;4.80;99.90
19941;DHT22;10132;50.864;5.176;2022-11-20T06:04:37;4.60;99.90
19941;DHT22;10132;50.864;5.176;2022-11-20T06:06:38;4.50;99.90
19941;DHT22;10132;50.864;5.176;2022-11-20T06:08:41;4.40;99.90
19941;DHT22;10132;50.864;5.176;2022-11-20T06:10:42;4.40;99.90
19941;DHT22;10132;50.864;5.176;2022-11-20T06:12:44;4.40;99.90
19941;DHT22;10132;50.864;5.176;2022-11-20T06:14:48;4.40;99.90
19941;DHT22;10132;50.864;5.176;2022-11-20T06:16:50;4.40;99.90
19941;DHT22;10132;50.864;5.176;2022-11-20T06:18:52;4.40;99.90
19941;DHT22;10132;50.864;5.176;2022-11-20T06:21:00;4.50;99.90
19941;DHT22;10132;50.864;5.176;2022-11-20T06:23:02;4.40;99.90
19941;DHT22;10132;50.864;5.176;2022-11-20T06:25:04;4.50;99.90
19941;DHT22;10132;50.864;5.176;2022-11-20T06:27:06;4.60;99.90
19941;DHT22;10132;50.864;5.176;2022-11-20T06:29:08;4.50;99.90
19941;DHT22;10132;50.864;5.176;2022-11-20T06:31:13;4.60;99.90
19941;DHT22;10132;50.864;5.176;2022-11-20T06:33:15;4.60;99.90
19941;DHT22;10132;50.864;5.176;2022-11-20T06:35:16;4.60;99.90
19941;DHT22;10132;50.864;5.176;2022-11-20T06:37:18;4.40;99.90
19941;DHT22;10132;50.864;5.176;2022-11-20T06:39:20;4.40;99.90
19941;DHT22;10132;50.864;5.176;2022-11-20T06:41:22;4.40;99.90
19941;DHT22;10132;50.864;5.176;2022-11-20T06:43:25;4.40;99.90
19941;DHT22;10132;50.864;5.176;2022-11-20T06:45:26;4.50;99.90
19941;DHT22;10132;50.864;5.176;2022-11-20T06:47:30;4.50;99.90
19941;DHT22;10132;50.864;5.176;2022-11-20T06:49:32;4.60;99.90
19941;DHT22;10132;50.864;5.176;2022-11-20T06:51:34;4.50;99.90
19941;DHT22;10132;50.864;5.176;2022-11-20T06:53:37;4.50;99.90
19941;DHT22;10132;50.864;5.176;2022-11-20T06:55:42;4.50;99.90
19941;DHT22;10132;50.864;5.176;2022-11-20T06:57:45;4.40;99.90
19941;DHT22;10132;50.864;5.176;2022-11-20T06:59:47;4.40;99.90
19941;DHT22;10132;50.864;5.176;2022-11-20T07:01:49;4.30;99.90
19941;DHT22;10132;50.864;5.176;2022-11-20T07:03:52;4.30;99.90
19941;DHT22;10132;50.864;5.176;2022-11-20T07:05:54;4.40;99.90
19941;DHT22;10132;50.864;5.176;2022-11-20T07:07:57;4.50;99.90
19941;DHT22;10132;50.864;5.176;2022-11-20T07:09:59;4.50;99.90
19941;DHT22;10132;50.864;5.176;2022-11-20T07:12:01;4.50;99.90
19941;DHT22;10132;50.864;5.176;2022-11-20T07:14:03;4.50;99.90
19941;DHT22;10132;50.864;5.176;2022-11-20T07:16:07;4.60;99.90
19941;DHT22;10132;50.864;5.176;2022-11-20T07:18:09;4.60;99.90
19941;DHT22;10132;50.864;5.176;2022-11-20T07:20:14;4.60;99.90
19941;DHT22;10132;50.864;5.176;2022-11-20T07:22:16;4.70;99.90
19941;DHT22;10132;50.864;5.176;2022-11-20T07:24:18;4.70;99.90
19941;DHT22;10132;50.864;5.176;2022-11-20T07:26:20;4.80;99.90
19941;DHT22;10132;50.864;5.176;2022-11-20T07:28:22;4.90;99.90
19941;DHT22;10132;50.864;5.176;2022-11-20T07:30:24;5.00;99.90
19941;DHT22;10132;50.864;5.176;2022-11-20T07:32:26;5.00;99.90
19941;DHT22;10132;50.864;5.176;2022-11-20T07:34:28;5.00;99.90
19941;DHT22;10132;50.864;5.176;2022-11-20T07:36:31;4.90;99.90
19941;DHT22;10132;50.864;5.176;2022-11-20T07:38:33;4.80;99.90
19941;DHT22;10132;50.864;5.176;2022-11-20T07:40:35;4.70;99.90
19941;DHT22;10132;50.864;5.176;2022-11-20T07:42:37;4.60;99.90
19941;DHT22;10132;50.864;5.176;2022-11-20T07:44:39;4.70;99.90
19941;DHT22;10132;50.864;5.176;2022-11-20T07:46:41;4.80;99.90
19941;DHT22;10132;50.864;5.176;2022-11-20T07:48:43;4.90;99.90
19941;DHT22;10132;50.864;5.176;2022-11-20T07:50:45;5.00;99.90
19941;DHT22;10132;50.864;5.176;2022-11-20T07:52:48;5.10;99.90
19941;DHT22;10132;50.864;5.176;2022-11-20T07:54:50;5.20;99.90
19941;DHT22;10132;50.864;5.176;2022-11-20T07:56:52;5.20;99.90
19941;DHT22;10132;50.864;5.176;2022-11-20T07:58:55;5.20;99.90
19941;DHT22;10132;50.864;5.176;2022-11-20T08:00:57;5.30;99.90
19941;DHT22;10132;50.864;5.176;2022-11-20T08:02:59;5.20;99.90
19941;DHT22;10132;50.864;5.176;2022-11-20T08:05:04;5.30;99.90
19941;DHT22;10132;50.864;5.176;2022-11-20T08:07:06;5.30;99.90
19941;DHT22;10132;50.864;5.176;2022-11-20T08:09:09;5.30;99.90
19941;DHT22;10132;50.864;5.176;2022-11-20T08:11:11;5.20;99.90
19941;DHT22;10132;50.864;5.176;2022-11-20T08:13:31;5.20;99.90
19941;DHT22;10132;50.864;5.176;2022-11-20T08:15:50;5.20;99.90
19941;DHT22;10132;50.864;5.176;2022-11-20T08:17:58;5.20;99.90
19941;DHT22;10132;50.864;5.176;2022-11-20T08:20:00;5.20;99.90
19941;DHT22;10132;50.864;5.176;2022-11-20T08:22:02;5.00;99.90
19941;DHT22;10132;50.864;5.176;2022-11-20T08:24:05;5.10;99.90
19941;DHT22;10132;50.864;5.176;2022-11-20T08:26:08;5.30;99.90
19941;DHT22;10132;50.864;5.176;2022-11-20T08:28:10;5.40;99.90
19941;DHT22;10132;50.864;5.176;2022-11-20T08:30:13;5.50;99.90
19941;DHT22;10132;50.864;5.176;2022-11-20T08:32:15;5.60;99.90
19941;DHT22;10132;50.864;5.176;2022-11-20T08:34:17;5.70;99.90
19941;DHT22;10132;50.864;5.176;2022-11-20T08:36:20;5.80;99.90
19941;DHT22;10132;50.864;5.176;2022-11-20T08:38:22;5.80;99.90
19941;DHT22;10132;50.864;5.176;2022-11-20T08:40:24;6.00;99.90
19941;DHT22;10132;50.864;5.176;2022-11-20T08:42:27;6.00;99.90
19941;DHT22;10132;50.864;5.176;2022-11-20T08:44:29;6.00;99.90
19941;DHT22;10132;50.864;5.176;2022-11-20T08:46:32;6.00;99.90
19941;DHT22;10132;50.864;5.176;2022-11-20T08:48:35;6.00;99.90
19941;DHT22;10132;50.864;5.176;2022-11-20T08:50:37;6.10;99.90
19941;DHT22;10132;50.864;5.176;2022-11-20T08:52:39;6.20;99.90
19941;DHT22;10132;50.864;5.176;2022-11-20T08:54:42;6.30;99.90
19941;DHT22;10132;50.864;5.176;2022-11-20T08:56:43;6.40;99.90
19941;DHT22;10132;50.864;5.176;2022-11-20T08:58:47;6.30;99.90
19941;DHT22;10132;50.864;5.176;2022-11-20T09:00:49;6.30;99.90
19941;DHT22;10132;50.864;5.176;2022-11-20T09:02:50;6.20;99.90
19941;DHT22;10132;50.864;5.176;2022-11-20T09:04:52;6.10;99.90
19941;DHT22;10132;50.864;5.176;2022-11-20T09:06:54;5.90;99.90
19941;DHT22;10132;50.864;5.176;2022-11-20T09:08:56;6.00;99.90
19941;DHT22;10132;50.864;5.176;2022-11-20T09:10:59;6.10;99.90
19941;DHT22;10132;50.864;5.176;2022-11-20T09:13:01;6.20;99.90
19941;DHT22;10132;50.864;5.176;2022-11-20T09:15:05;6.20;99.90
19941;DHT22;10132;50.864;5.176;2022-11-20T09:17:09;6.30;99.90
19941;DHT22;10132;50.864;5.176;2022-11-20T09:19:13;6.40;99.90
19941;DHT22;10132;50.864;5.176;2022-11-20T09:21:15;6.50;99.90
19941;DHT22;10132;50.864;5.176;2022-11-20T09:23:17;6.60;99.90
19941;DHT22;10132;50.864;5.176;2022-11-20T09:25:19;6.60;99.90
19941;DHT22;10132;50.864;5.176;2022-11-20T09:27:21;6.60;99.90
19941;DHT22;10132;50.864;5.176;2022-11-20T09:29:23;6.50;99.90
19941;DHT22;10132;50.864;5.176;2022-11-20T09:31:27;6.50;99.90
19941;DHT22;10132;50.864;5.176;2022-11-20T09:33:28;6.70;99.90
19941;DHT22;10132;50.864;5.176;2022-11-20T09:35:30;6.60;99.90
19941;DHT22;10132;50.864;5.176;2022-11-20T09:37:32;6.60;99.90
19941;DHT22;10132;50.864;5.176;2022-11-20T09:39:34;6.60;99.90
19941;DHT22;10132;50.864;5.176;2022-11-20T09:41:55;6.70;99.90
19941;DHT22;10132;50.864;5.176;2022-11-20T09:44:04;6.80;99.90
19941;DHT22;10132;50.864;5.176;2022-11-20T09:46:16;7.10;99.90
19941;DHT22;10132;50.864;5.176;2022-11-20T09:48:31;7.10;99.90
19941;DHT22;10132;50.864;5.176;2022-11-20T09:50:38;7.20;99.90
19941;DHT22;10132;50.864;5.176;2022-11-20T09:52:50;7.30;99.90
19941;DHT22;10132;50.864;5.176;2022-11-20T09:54:57;7.30;99.90
19941;DHT22;10132;50.864;5.176;2022-11-20T09:57:00;7.20;99.90
19941;DHT22;10132;50.864;5.176;2022-11-20T09:59:06;7.30;99.90
19941;DHT22;10132;50.864;5.176;2022-11-20T10:01:12;7.20;99.90
19941;DHT22;10132;50.864;5.176;2022-11-20T10:03:16;7.30;99.90
19941;DHT22;10132;50.864;5.176;2022-11-20T10:05:24;7.40;99.90
19941;DHT22;10132;50.864;5.176;2022-11-20T10:07:32;7.20;99.90
19941;DHT22;10132;50.864;5.176;2022-11-20T10:09:38;7.20;99.90
19941;DHT22;10132;50.864;5.176;2022-11-20T10:11:48;7.30;99.90
19941;DHT22;10132;50.864;5.176;2022-11-20T10:14:01;7.20;99.90
19941;DHT22;10132;50.864;5.176;2022-11-20T10:16:16;7.30;99.90
19941;DHT22;10132;50.864;5.176;2022-11-20T10:18:31;7.40;99.90
19941;DHT22;10132;50.864;5.176;2022-11-20T10:20:46;7.60;99.90
19941;DHT22;10132;50.864;5.176;2022-11-20T10:23:00;7.70;99.90
19941;DHT22;10132;50.864;5.176;2022-11-20T10:25:10;7.60;99.90
19941;DHT22;10132;50.864;5.176;2022-11-20T10:27:38;7.60;99.90
19941;DHT22;10132;50.864;5.176;2022-11-20T10:29:43;7.80;99.90
19941;DHT22;10132;50.864;5.176;2022-11-20T10:31:50;7.90;99.90
19941;DHT22;10132;50.864;5.176;2022-11-20T10:33:54;8.00;99.90
19941;DHT22;10132;50.864;5.176;2022-11-20T10:36:07;8.00;99.90
19941;DHT22;10132;50.864;5.176;2022-11-20T10:38:16;8.00;99.90
19941;DHT22;10132;50.864;5.176;2022-11-20T10:40:27;8.00;99.90
19941;DHT22;10132;50.864;5.176;2022-11-20T10:42:36;8.10;99.90
19941;DHT22;10132;50.864;5.176;2022-11-20T10:44:42;8.00;99.90
19941;DHT22;10132;50.864;5.176;2022-11-20T10:47:04;8.10;99.90
19941;DHT22;10132;50.864;5.176;2022-11-20T10:49:12;8.20;99.90
19941;DHT22;10132;50.864;5.176;2022-11-20T10:51:27;8.30;99.90
19941;DHT22;10132;50.864;5.176;2022-11-20T10:53:46;8.30;99.90
19941;DHT22;10132;50.864;5.176;2022-11-20T10:55:54;8.40;99.90
19941;DHT22;10132;50.864;5.176;2022-11-20T10:58:03;8.50;99.90
19941;DHT22;10132;50.864;5.176;2022-11-20T11:00:09;8.40;99.90
19941;DHT22;10132;50.864;5.176;2022-11-20T11:02:16;8.40;99.90
19941;DHT22;10132;50.864;5.176;2022-11-20T11:04:35;8.40;99.90
19941;DHT22;10132;50.864;5.176;2022-11-20T11:06:43;8.50;99.90
19941;DHT22;10132;50.864;5.176;2022-11-20T11:08:49;8.60;99.90
19941;DHT22;10132;50.864;5.176;2022-11-20T11:10:55;8.70;99.90
19941;DHT22;10132;50.864;5.176;2022-11-20T11:12:58;8.80;99.90
19941;DHT22;10132;50.864;5.176;2022-11-20T11:15:00;8.60;99.90
19941;DHT22;10132;50.864;5.176;2022-11-20T11:17:02;8.60;99.90
19941;DHT22;10132;50.864;5.176;2022-11-20T11:19:05;8.60;99.90
19941;DHT22;10132;50.864;5.176;2022-11-20T11:21:08;8.60;99.90
19941;DHT22;10132;50.864;5.176;2022-11-20T11:23:30;8.70;99.90
19941;DHT22;10132;50.864;5.176;2022-11-20T11:25:34;8.90;99.90
19941;DHT22;10132;50.864;5.176;2022-11-20T11:27:45;9.00;99.90
19941;DHT22;10132;50.864;5.176;2022-11-20T11:29:48;9.20;99.90
19941;DHT22;10132;50.864;5.176;2022-11-20T11:31:50;9.30;99.90
19941;DHT22;10132;50.864;5.176;2022-11-20T11:33:52;9.30;99.90
19941;DHT22;10132;50.864;5.176;2022-11-20T11:35:55;9.40;99.90
19941;DHT22;10132;50.864;5.176;2022-11-20T11:38:04;9.40;99.90
19941;DHT22;10132;50.864;5.176;2022-11-20T11:40:11;9.40;99.90
19941;DHT22;10132;50.864;5.176;2022-11-20T11:42:17;9.30;99.90
19941;DHT22;10132;50.864;5.176;2022-11-20T11:44:20;9.30;99.90
19941;DHT22;10132;50.864;5.176;2022-11-20T11:46:44;9.40;99.90
19941;DHT22;10132;50.864;5.176;2022-11-20T11:48:56;9.20;99.90
19941;DHT22;10132;50.864;5.176;2022-11-20T11:50:58;9.20;99.90
19941;DHT22;10132;50.864;5.176;2022-11-20T11:53:07;9.30;99.90
19941;DHT22;10132;50.864;5.176;2022-11-20T11:55:15;9.40;99.90
19941;DHT22;10132;50.864;5.176;2022-11-20T11:57:26;9.50;99.90
19941;DHT22;10132;50.864;5.176;2022-11-20T11:59:41;9.50;99.90
19941;DHT22;10132;50.864;5.176;2022-11-20T12:01:49;9.30;99.90
19941;DHT22;10132;50.864;5.176;2022-11-20T12:03:58;9.30;99.90
19941;DHT22;10132;50.864;5.176;2022-11-20T12:06:05;9.20;99.90
19941;DHT22;10132;50.864;5.176;2022-11-20T12:08:14;9.30;99.90
19941;DHT22;10132;50.864;5.176;2022-11-20T12:10:23;9.20;99.90
19941;DHT22;10132;50.864;5.176;2022-11-20T12:12:29;9.30;99.90
19941;DHT22;10132;50.864;5.176;2022-11-20T12:14:34;9.40;99.90
19941;DHT22;10132;50.864;5.176;2022-11-20T12:16:38;9.40;99.90
19941;DHT22;10132;50.864;5.176;2022-11-20T12:18:41;9.40;99.90
19941;DHT22;10132;50.864;5.176;2022-11-20T12:20:48;9.40;99.90
19941;DHT22;10132;50.864;5.176;2022-11-20T12:22:59;9.30;99.90
19941;DHT22;10132;50.864;5.176;2022-11-20T12:25:07;9.20;99.90
19941;DHT22;10132;50.864;5.176;2022-11-20T12:27:36;9.10;99.90
19941;DHT22;10132;50.864;5.176;2022-11-20T12:29:46;9.20;99.90
19941;DHT22;10132;50.864;5.176;2022-11-20T12:32:00;9.20;99.90
19941;DHT22;10132;50.864;5.176;2022-11-20T12:34:16;9.30;99.90
19941;DHT22;10132;50.864;5.176;2022-11-20T12:36:31;9.30;99.90
19941;DHT22;10132;50.864;5.176;2022-11-20T12:39:16;9.30;99.90
19941;DHT22;10132;50.864;5.176;2022-11-20T12:41:40;9.30;99.90
19941;DHT22;10132;50.864;5.176;2022-11-20T12:44:12;9.30;99.90
19941;DHT22;10132;50.864;5.176;2022-11-20T12:46:37;9.20;99.90
19941;DHT22;10132;50.864;5.176;2022-11-20T12:49:11;9.20;99.90
19941;DHT22;10132;50.864;5.176;2022-11-20T12:51:30;9.20;99.90
19941;DHT22;10132;50.864;5.176;2022-11-20T12:53:41;9.20;99.90
19941;DHT22;10132;50.864;5.176;2022-11-20T12:55:49;9.30;99.90
19941;DHT22;10132;50.864;5.176;2022-11-20T12:57:58;9.20;99.90
19941;DHT22;10132;50.864;5.176;2022-11-20T13:00:10;9.10;99.90
19941;DHT22;10132;50.864;5.176;2022-11-20T13:02:23;8.90;99.90
19941;DHT22;10132;50.864;5.176;2022-11-20T13:04:55;8.80;99.90
19941;DHT22;10132;50.864;5.176;2022-11-20T13:06:58;8.60;99.90
19941;DHT22;10132;50.864;5.176;2022-11-20T13:09:00;8.50;99.90
19941;DHT22;10132;50.864;5.176;2022-11-20T13:11:09;8.50;99.90
19941;DHT22;10132;50.864;5.176;2022-11-20T13:13:17;8.40;99.90
19941;DHT22;10132;50.864;5.176;2022-11-20T13:15:36;8.40;99.90
19941;DHT22;10132;50.864;5.176;2022-11-20T13:17:43;8.40;99.90
19941;DHT22;10132;50.864;5.176;2022-11-20T13:19:52;8.20;99.90
19941;DHT22;10132;50.864;5.176;2022-11-20T13:21:55;8.30;99.90